logo
Search for airport 
image banner adimage banner adimage banner ad
image banner ad

SHTC - Edificio Corporativo Ctc

Located in Santiago, Chile

ICAO - SHTC, IATA -

Data provided by Airmate  

General information

Coordinates: S33°26'13" W70°37'57"
Elevation is 2389 feet MSL.
 
View others Airports in Santiago Metropolitan Region

Operational data

Special qualification required
Current time UTC:
Current local time:
Weather at : SCTB - Eulogio Sanchez - Tobalaba ( 8 km )
METAR: SCTB 171300Z 06005KT CAVOK 10/M01 Q1017
View NOTAMs / SUP AIP / TFR affecting this airport [VIEW]
Communications frequencies: [VIEW]

Runways:

Airport contact information

Address: Santiago Chile

Satellite view of SHTC